createdAt,value
2017-08-04T00:00:06.307Z,4.80
2017-08-04T00:02:34.608Z,4.83
2017-08-04T00:05:02.991Z,4.30
2017-08-04T00:07:31.279Z,4.27
2017-08-04T00:09:59.660Z,4.13
2017-08-04T00:12:27.929Z,7.57
2017-08-04T00:14:56.229Z,4.77
2017-08-04T00:17:24.479Z,4.87
2017-08-04T00:19:52.895Z,4.30
2017-08-04T00:22:21.169Z,4.40
2017-08-04T00:24:49.431Z,5.27
2017-08-04T00:27:17.848Z,4.63
2017-08-04T00:29:46.945Z,4.77
2017-08-04T00:32:16.008Z,4.50
2017-08-04T00:34:44.274Z,5.43
2017-08-04T00:37:12.596Z,4.27
2017-08-04T00:39:41.634Z,4.40
2017-08-04T00:42:10.033Z,4.70
2017-08-04T00:44:38.328Z,4.60
2017-08-04T00:47:06.698Z,4.23
2017-08-04T00:49:35.071Z,4.50
2017-08-04T00:52:03.363Z,4.20
2017-08-04T00:54:32.508Z,4.90
2017-08-04T00:57:00.810Z,4.60
2017-08-04T00:59:29.189Z,4.63
2017-08-04T01:01:57.454Z,5.10
2017-08-04T01:04:25.750Z,4.23
2017-08-04T01:06:54.062Z,4.50
2017-08-04T01:09:22.451Z,4.80
2017-08-04T01:11:50.821Z,5.73
2017-08-04T01:14:19.101Z,4.13
2017-08-04T01:16:47.483Z,4.37
2017-08-04T01:19:15.748Z,4.13
2017-08-04T01:21:44.142Z,4.40
2017-08-04T01:24:12.413Z,4.70
2017-08-04T01:26:40.706Z,4.53
2017-08-04T01:29:08.976Z,5.50
2017-08-04T01:31:37.452Z,6.00
2017-08-04T01:34:05.717Z,5.37
2017-08-04T01:36:33.990Z,4.60
2017-08-04T01:39:02.271Z,4.70
2017-08-04T01:41:31.347Z,6.30
2017-08-04T01:43:59.820Z,5.37
2017-08-04T01:46:28.101Z,5.40
2017-08-04T01:48:56.386Z,4.83
2017-08-04T01:51:24.649Z,5.00
2017-08-04T01:53:53.019Z,5.23
2017-08-04T01:56:21.295Z,5.40
2017-08-04T01:58:49.586Z,5.70
2017-08-04T02:01:17.962Z,4.87
2017-08-04T02:03:46.225Z,5.17
2017-08-04T02:06:14.637Z,5.20
2017-08-04T02:08:42.896Z,4.53
2017-08-04T02:11:11.276Z,8.13
2017-08-04T02:13:39.642Z,4.73
2017-08-04T02:16:08.015Z,4.33
2017-08-04T02:18:36.272Z,5.80
2017-08-04T02:21:04.568Z,4.60
2017-08-04T02:23:32.847Z,5.40
2017-08-04T02:26:01.105Z,4.83
2017-08-04T02:28:29.400Z,4.67
2017-08-04T02:30:57.678Z,4.27
2017-08-04T02:33:26.099Z,5.30
2017-08-04T02:35:55.153Z,5.33
2017-08-04T02:38:23.442Z,5.40
2017-08-04T02:40:51.710Z,4.60
2017-08-04T02:43:20.092Z,4.73
2017-08-04T02:45:49.116Z,5.00
2017-08-04T02:48:17.426Z,5.20
2017-08-04T02:50:45.801Z,4.33
2017-08-04T02:53:14.063Z,5.07
2017-08-04T02:55:42.334Z,6.10
2017-08-04T02:58:10.643Z,4.87
2017-08-04T03:00:38.918Z,4.47
2017-08-04T03:03:07.322Z,5.40
2017-08-04T03:05:36.389Z,5.73
2017-08-04T03:08:04.650Z,5.10
2017-08-04T03:10:33.837Z,6.63
2017-08-04T03:13:02.102Z,5.80
2017-08-04T03:15:30.377Z,5.40
2017-08-04T03:17:58.667Z,5.37
2017-08-04T03:20:27.041Z,5.73
2017-08-04T03:22:55.324Z,5.93
2017-08-04T03:25:23.584Z,5.43
2017-08-04T03:27:51.964Z,5.80
2017-08-04T03:30:20.218Z,5.63
2017-08-04T03:32:48.715Z,6.33
2017-08-04T03:35:16.986Z,6.07
2017-08-04T03:37:45.253Z,5.93
2017-08-04T03:40:13.745Z,5.97
2017-08-04T03:42:42.008Z,5.93
2017-08-04T03:45:10.412Z,6.40
2017-08-04T03:47:38.690Z,6.43
2017-08-04T03:50:06.964Z,6.10
2017-08-04T03:52:35.229Z,5.60
2017-08-04T03:55:03.521Z,5.87
2017-08-04T03:57:31.798Z,6.93
2017-08-04T04:00:00.176Z,7.20
2017-08-04T04:02:28.597Z,5.23
2017-08-04T04:04:56.914Z,5.67
2017-08-04T04:07:25.200Z,7.13
2017-08-04T04:09:53.483Z,6.37
2017-08-04T04:12:21.755Z,5.77
2017-08-04T04:14:50.004Z,5.77
2017-08-04T04:17:18.306Z,6.60
2017-08-04T04:19:46.574Z,4.33
2017-08-04T04:22:15.601Z,4.77
2017-08-04T04:24:43.904Z,5.30
2017-08-04T04:27:12.207Z,3.90
2017-08-04T04:29:40.503Z,4.17
2017-08-04T04:32:09.516Z,4.30
2017-08-04T04:34:37.858Z,3.50
2017-08-04T04:37:06.130Z,3.87
2017-08-04T04:39:34.551Z,4.03
2017-08-04T04:42:02.938Z,3.67
2017-08-04T04:44:31.310Z,4.60
2017-08-04T04:46:59.585Z,4.17
2017-08-04T04:49:27.879Z,3.20
2017-08-04T04:51:56.153Z,3.57
2017-08-04T04:54:24.430Z,4.07
2017-08-04T04:56:52.717Z,3.87
2017-08-04T04:59:21.786Z,3.07
2017-08-04T05:01:50.092Z,3.50
2017-08-04T05:04:18.445Z,3.80
2017-08-04T05:06:46.822Z,4.43
2017-08-04T05:09:15.095Z,3.00
2017-08-04T05:11:43.395Z,3.10
2017-08-04T05:14:11.761Z,3.73
2017-08-04T05:16:40.032Z,3.07
2017-08-04T05:19:08.419Z,4.47
2017-08-04T05:21:36.712Z,4.00
2017-08-04T05:24:05.754Z,3.30
2017-08-04T05:26:34.078Z,3.00
2017-08-04T05:29:02.463Z,3.00
2017-08-04T05:31:30.826Z,3.00
2017-08-04T05:33:59.086Z,2.50
2017-08-04T05:36:27.478Z,6.17
2017-08-04T05:38:55.744Z,4.33
2017-08-04T05:41:24.133Z,3.00
2017-08-04T05:43:52.405Z,2.40
2017-08-04T05:46:20.712Z,3.37
2017-08-04T05:48:49.061Z,1.83
2017-08-04T05:51:17.367Z,2.00
2017-08-04T05:53:45.723Z,2.77
2017-08-04T05:56:14.000Z,3.77
2017-08-04T05:58:42.381Z,2.60
2017-08-04T06:01:10.653Z,2.20
2017-08-04T06:03:38.930Z,2.20
2017-08-04T06:06:07.194Z,2.47
2017-08-04T06:08:35.481Z,2.70
2017-08-04T06:11:03.741Z,2.37
2017-08-04T06:13:32.025Z,2.90
2017-08-04T06:16:01.066Z,2.20
2017-08-04T06:18:29.465Z,2.30
2017-08-04T06:20:57.727Z,2.30
2017-08-04T06:23:26.029Z,2.30
2017-08-04T06:25:54.327Z,3.03
2017-08-04T06:28:23.397Z,2.20
2017-08-04T06:30:51.725Z,2.30
2017-08-04T06:33:19.990Z,6.10
2017-08-04T06:35:48.285Z,2.80
2017-08-04T06:38:16.545Z,2.13
2017-08-04T06:40:44.850Z,3.37
2017-08-04T06:43:13.114Z,3.20
2017-08-04T06:45:41.396Z,3.53
2017-08-04T06:48:21.555Z,3.70
2017-08-04T06:51:01.667Z,2.33
2017-08-04T06:53:41.866Z,4.97
2017-08-04T06:56:10.830Z,5.77
2017-08-04T06:58:39.124Z,2.60
2017-08-04T07:01:07.411Z,4.70
2017-08-04T07:03:35.686Z,3.07
2017-08-04T07:06:03.978Z,3.83
2017-08-04T07:08:32.333Z,2.80
2017-08-04T07:11:00.597Z,2.60
2017-08-04T07:13:28.910Z,3.17
2017-08-04T07:15:57.271Z,5.00
2017-08-04T07:18:25.550Z,3.77
2017-08-04T07:20:53.849Z,4.17
2017-08-04T07:23:22.221Z,3.23
2017-08-04T07:25:50.587Z,2.67
2017-08-04T07:28:18.854Z,3.20
2017-08-04T07:30:47.228Z,2.83
2017-08-04T07:33:15.516Z,3.93
2017-08-04T07:35:43.897Z,2.37
2017-08-04T07:38:12.157Z,2.20
2017-08-04T07:40:40.431Z,3.40
2017-08-04T07:43:08.745Z,2.17
2017-08-04T07:45:37.022Z,3.10
2017-08-04T07:48:05.297Z,2.50
2017-08-04T07:50:33.571Z,2.70
2017-08-04T07:53:01.949Z,3.77
2017-08-04T07:55:30.208Z,3.00
2017-08-04T07:57:58.496Z,2.63
2017-08-04T08:00:26.801Z,3.93
2017-08-04T08:02:55.052Z,2.43
2017-08-04T08:05:23.354Z,2.80
2017-08-04T08:07:51.632Z,4.10
2017-08-04T08:10:19.923Z,3.47
2017-08-04T08:12:48.193Z,4.10
2017-08-04T08:15:16.547Z,2.00
2017-08-04T08:17:44.854Z,3.60
2017-08-04T08:20:13.138Z,4.67
2017-08-04T08:22:42.183Z,3.57
2017-08-04T08:25:10.485Z,2.40
2017-08-04T08:27:38.784Z,2.37
2017-08-04T08:30:07.848Z,2.37
2017-08-04T08:32:36.250Z,4.13
2017-08-04T08:35:04.619Z,2.70
2017-08-04T08:37:32.905Z,3.33
2017-08-04T08:40:01.275Z,4.33
2017-08-04T08:42:29.654Z,3.87
2017-08-04T08:44:57.952Z,2.80
2017-08-04T08:47:26.247Z,5.13
2017-08-04T08:49:54.522Z,2.80
2017-08-04T08:52:23.568Z,2.90
2017-08-04T08:54:51.956Z,2.00
2017-08-04T08:57:20.252Z,2.53
2017-08-04T08:59:49.280Z,4.93
2017-08-04T09:02:17.584Z,2.60
2017-08-04T09:04:45.882Z,3.67
2017-08-04T09:07:14.178Z,3.93
2017-08-04T09:09:43.203Z,4.20
2017-08-04T09:12:11.477Z,3.17
2017-08-04T09:14:39.802Z,3.97
2017-08-04T09:17:08.055Z,3.47
2017-08-04T09:19:36.346Z,2.77
2017-08-04T09:22:04.643Z,2.50
2017-08-04T09:24:33.013Z,3.03
2017-08-04T09:27:01.296Z,2.60
2017-08-04T09:29:29.668Z,3.53
2017-08-04T09:31:57.960Z,2.90
2017-08-04T09:34:26.336Z,3.30
2017-08-04T09:36:54.603Z,3.93
2017-08-04T09:39:22.985Z,3.70
2017-08-04T09:41:51.236Z,2.70
2017-08-04T09:44:19.549Z,5.30
2017-08-04T09:46:47.847Z,2.57
2017-08-04T09:49:16.998Z,3.30
2017-08-04T09:51:45.286Z,4.40
2017-08-04T09:54:13.560Z,9.20
2017-08-04T09:56:41.848Z,2.40
2017-08-04T09:59:10.172Z,2.80
2017-08-04T10:01:38.555Z,3.20
2017-08-04T10:04:06.813Z,2.50
2017-08-04T10:06:35.191Z,4.93
2017-08-04T10:09:03.458Z,3.33
2017-08-04T10:11:31.801Z,2.40
2017-08-04T10:14:00.072Z,2.70
2017-08-04T10:16:28.385Z,3.23
2017-08-04T10:18:56.695Z,2.60
2017-08-04T10:21:24.984Z,3.60
2017-08-04T10:23:54.884Z,2.73
2017-08-04T10:26:23.253Z,3.20
2017-08-04T10:28:51.541Z,3.07
2017-08-04T10:31:19.817Z,2.83
2017-08-04T10:33:48.186Z,4.07
2017-08-04T10:36:16.445Z,2.90
2017-08-04T10:38:44.723Z,2.80
2017-08-04T10:41:12.985Z,2.83
2017-08-04T10:43:41.274Z,2.30
2017-08-04T10:46:09.543Z,3.43
2017-08-04T10:48:37.906Z,2.60
2017-08-04T10:51:06.173Z,2.43
2017-08-04T10:53:34.585Z,2.60
2017-08-04T10:56:02.871Z,2.40
2017-08-04T10:58:31.264Z,3.13
2017-08-04T11:00:59.520Z,2.17
2017-08-04T11:03:27.801Z,2.30
2017-08-04T11:05:56.092Z,2.20
2017-08-04T11:08:24.348Z,2.63
2017-08-04T11:10:52.633Z,2.57
2017-08-04T11:13:20.897Z,4.60
2017-08-04T11:15:49.219Z,2.03
2017-08-04T11:18:17.468Z,2.70
2017-08-04T11:20:45.770Z,1.83
2017-08-04T11:23:14.154Z,2.43
2017-08-04T11:25:42.534Z,2.63
2017-08-04T11:28:10.915Z,5.30
2017-08-04T11:30:39.293Z,2.57
2017-08-04T11:33:07.669Z,2.47
2017-08-04T11:35:36.038Z,3.47
2017-08-04T11:38:04.331Z,2.90
2017-08-04T11:40:32.703Z,1.90
2017-08-04T11:43:00.956Z,4.00
2017-08-04T11:45:29.358Z,2.70
2017-08-04T11:47:57.733Z,2.43
2017-08-04T11:50:26.023Z,2.03
2017-08-04T11:52:54.319Z,2.40
2017-08-04T11:55:23.381Z,3.13
2017-08-04T11:57:52.429Z,1.90
2017-08-04T12:00:21.461Z,2.10
2017-08-04T12:02:49.780Z,2.97
2017-08-04T12:05:18.037Z,4.23
2017-08-04T12:07:46.328Z,3.43
2017-08-04T12:10:15.432Z,4.80
2017-08-04T12:12:44.483Z,2.20
2017-08-04T12:15:12.780Z,2.10
2017-08-04T12:17:41.145Z,2.00
2017-08-04T12:20:09.421Z,1.80
2017-08-04T12:22:37.788Z,1.87
2017-08-04T12:25:06.073Z,1.70
2017-08-04T12:27:34.355Z,1.63
2017-08-04T12:30:02.739Z,2.33
2017-08-04T12:32:31.013Z,1.63
2017-08-04T12:34:59.281Z,4.37
2017-08-04T12:37:27.540Z,4.87
2017-08-04T12:39:56.609Z,2.30
2017-08-04T12:42:24.891Z,4.07
2017-08-04T12:44:53.277Z,2.30
2017-08-04T12:47:21.530Z,2.23
2017-08-04T12:49:49.811Z,2.17
2017-08-04T12:52:18.073Z,2.10
2017-08-04T12:54:46.345Z,3.30
2017-08-04T12:57:14.626Z,3.47
2017-08-04T12:59:43.005Z,2.20
2017-08-04T13:02:11.282Z,1.63
2017-08-04T13:04:39.652Z,2.23
2017-08-04T13:07:07.941Z,3.00
2017-08-04T13:09:36.315Z,2.00
2017-08-04T13:12:04.578Z,2.33
2017-08-04T13:14:32.864Z,2.20
2017-08-04T13:17:01.264Z,1.60
2017-08-04T13:19:29.555Z,2.53
2017-08-04T13:21:57.846Z,3.43
2017-08-04T13:24:26.146Z,2.13
2017-08-04T13:26:54.521Z,4.03
2017-08-04T13:29:22.785Z,2.60
2017-08-04T13:31:51.177Z,3.67
2017-08-04T13:34:19.475Z,2.83
2017-08-04T13:36:47.749Z,2.23
2017-08-04T13:39:16.118Z,2.50
2017-08-04T13:41:44.392Z,2.57
2017-08-04T13:44:12.659Z,2.40
2017-08-04T13:46:40.953Z,1.60
2017-08-04T13:49:09.204Z,2.37
2017-08-04T13:51:37.467Z,1.67
2017-08-04T13:54:05.778Z,1.87
2017-08-04T13:56:34.029Z,1.90
2017-08-04T13:59:02.321Z,1.90
2017-08-04T14:01:30.582Z,2.20
2017-08-04T14:03:58.873Z,1.63
2017-08-04T14:06:27.138Z,4.03
2017-08-04T14:08:55.457Z,1.83
2017-08-04T14:11:24.493Z,2.10
2017-08-04T14:13:52.806Z,2.40
2017-08-04T14:16:21.086Z,1.97
2017-08-04T14:18:49.338Z,1.70
2017-08-04T14:21:17.609Z,2.33
2017-08-04T14:23:45.889Z,2.77
2017-08-04T14:26:14.263Z,2.30
2017-08-04T14:28:42.547Z,3.30
2017-08-04T14:31:10.929Z,1.60
2017-08-04T14:33:39.197Z,2.87
2017-08-04T14:36:07.478Z,1.63
2017-08-04T14:38:35.747Z,1.50
2017-08-04T14:41:04.126Z,1.63
2017-08-04T14:43:32.426Z,1.40
2017-08-04T14:46:00.694Z,1.70
2017-08-04T14:48:29.069Z,1.50
2017-08-04T14:50:57.349Z,1.63
2017-08-04T14:53:25.711Z,1.83
2017-08-04T14:55:54.004Z,1.63
2017-08-04T14:58:22.286Z,1.60
2017-08-04T15:00:50.578Z,1.10
2017-08-04T15:03:18.872Z,1.40
2017-08-04T15:05:47.156Z,1.53
2017-08-04T15:08:15.480Z,1.33
2017-08-04T15:10:43.755Z,1.40
2017-08-04T15:13:12.052Z,1.27
2017-08-04T15:15:40.435Z,1.90
2017-08-04T15:18:08.695Z,1.10
2017-08-04T15:20:37.073Z,1.27
2017-08-04T15:23:05.358Z,2.20
2017-08-04T15:25:33.732Z,2.43
2017-08-04T15:28:02.016Z,1.13
2017-08-04T15:30:30.392Z,1.50
2017-08-04T15:32:58.666Z,1.33
2017-08-04T15:35:26.985Z,1.37
2017-08-04T15:37:55.290Z,0.83
2017-08-04T15:40:23.601Z,1.30
2017-08-04T15:42:51.895Z,1.57
2017-08-04T15:45:20.162Z,1.80
2017-08-04T15:47:48.436Z,2.40
2017-08-04T15:50:16.812Z,1.13
2017-08-04T15:52:45.186Z,0.80
2017-08-04T15:55:13.440Z,1.10
2017-08-04T15:57:41.745Z,0.77
2017-08-04T16:00:10.031Z,2.00
2017-08-04T16:02:38.281Z,1.40
2017-08-04T16:05:06.586Z,1.30
2017-08-04T16:07:34.949Z,1.73
2017-08-04T16:10:03.317Z,1.10
2017-08-04T16:12:31.598Z,1.30
2017-08-04T16:14:59.898Z,1.50
2017-08-04T16:17:28.168Z,1.10
2017-08-04T16:19:56.437Z,1.10
2017-08-04T16:22:25.539Z,0.93
2017-08-04T16:24:54.251Z,2.60
2017-08-04T16:27:23.339Z,1.90
2017-08-04T16:29:53.688Z,3.73
2017-08-04T16:32:22.905Z,1.50
2017-08-04T16:34:52.342Z,0.97
2017-08-04T16:37:20.752Z,1.20
2017-08-04T16:39:49.804Z,2.03
2017-08-04T16:42:18.106Z,4.00
2017-08-04T16:44:46.475Z,1.87
2017-08-04T16:47:14.739Z,1.00
2017-08-04T16:49:43.048Z,1.17
2017-08-04T16:52:11.309Z,1.20
2017-08-04T16:54:39.685Z,1.10
2017-08-04T16:57:07.959Z,2.03
2017-08-04T16:59:36.220Z,1.87
2017-08-04T17:02:04.509Z,1.23
2017-08-04T17:04:32.809Z,1.37
2017-08-04T17:07:01.165Z,1.20
2017-08-04T17:09:29.531Z,2.20
2017-08-04T17:11:57.825Z,1.00
2017-08-04T17:14:26.106Z,0.90
2017-08-04T17:16:54.481Z,1.23
2017-08-04T17:19:22.776Z,1.33
2017-08-04T17:21:51.048Z,0.83
2017-08-04T17:24:19.337Z,1.30
2017-08-04T17:26:48.377Z,1.10
2017-08-04T17:29:16.694Z,1.10
2017-08-04T17:31:44.964Z,1.43
2017-08-04T17:34:13.246Z,1.37
2017-08-04T17:36:41.538Z,3.23
2017-08-04T17:39:09.840Z,1.50
2017-08-04T17:41:38.904Z,0.93
2017-08-04T17:44:07.179Z,1.20
2017-08-04T17:46:35.567Z,1.60
2017-08-04T17:49:03.855Z,1.27
2017-08-04T17:51:32.127Z,2.60
2017-08-04T17:54:00.489Z,1.50
2017-08-04T17:56:28.817Z,1.10
2017-08-04T17:58:57.141Z,1.30
2017-08-04T18:01:26.201Z,0.90
2017-08-04T18:03:54.475Z,1.10
2017-08-04T18:06:22.775Z,1.47
2017-08-04T18:08:51.805Z,1.57
2017-08-04T18:11:20.119Z,1.90
2017-08-04T18:13:48.459Z,1.47
2017-08-04T18:16:16.720Z,1.93
2017-08-04T18:18:45.780Z,1.50
2017-08-04T18:21:14.042Z,2.77
2017-08-04T18:23:42.436Z,1.73
2017-08-04T18:26:10.710Z,2.63
2017-08-04T18:28:39.080Z,1.37
2017-08-04T18:31:07.365Z,3.37
2017-08-04T18:33:35.633Z,1.70
2017-08-04T18:36:03.915Z,3.70
2017-08-04T18:38:32.195Z,2.03
2017-08-04T18:41:00.569Z,1.50
2017-08-04T18:43:28.848Z,1.60
2017-08-04T18:45:57.230Z,2.80
2017-08-04T18:48:25.491Z,2.70
2017-08-04T18:50:53.895Z,2.00
2017-08-04T18:53:22.168Z,1.80
2017-08-04T18:55:50.548Z,3.23
2017-08-04T18:58:18.926Z,1.50
2017-08-04T19:00:47.203Z,2.13
2017-08-04T19:03:15.589Z,1.93
2017-08-04T19:05:43.893Z,1.60
2017-08-04T19:08:12.234Z,2.00
2017-08-04T19:10:40.616Z,1.63
2017-08-04T19:13:08.891Z,1.80
2017-08-04T19:15:37.181Z,1.97
2017-08-04T19:18:05.455Z,1.80
2017-08-04T19:20:33.821Z,2.97
2017-08-04T19:23:02.098Z,3.43
2017-08-04T19:25:30.495Z,2.40
2017-08-04T19:27:58.757Z,3.00
2017-08-04T19:30:27.047Z,2.07
2017-08-04T19:32:55.305Z,2.20
2017-08-04T19:35:23.576Z,2.73
2017-08-04T19:37:51.970Z,2.03
2017-08-04T19:40:20.220Z,2.00
2017-08-04T19:42:48.549Z,2.00
2017-08-04T19:45:16.792Z,3.30
2017-08-04T19:47:45.851Z,1.90
2017-08-04T19:50:14.148Z,2.07
2017-08-04T19:52:42.427Z,2.70
2017-08-04T19:55:10.694Z,2.40
2017-08-04T19:57:39.081Z,2.33
2017-08-04T20:00:07.349Z,2.20
2017-08-04T20:02:35.626Z,4.60
2017-08-04T20:05:03.902Z,3.00
2017-08-04T20:07:32.189Z,2.23
2017-08-04T20:10:00.548Z,4.53
2017-08-04T20:12:28.817Z,2.40
2017-08-04T20:14:57.110Z,2.17
2017-08-04T20:17:25.391Z,2.20
2017-08-04T20:19:53.641Z,2.13
2017-08-04T20:22:21.945Z,2.10
2017-08-04T20:24:50.221Z,2.73
2017-08-04T20:27:18.512Z,2.53
2017-08-04T20:29:46.777Z,3.70
2017-08-04T20:32:15.152Z,2.40
2017-08-04T20:34:43.442Z,2.30
2017-08-04T20:37:11.726Z,2.40
2017-08-04T20:39:40.190Z,1.80
2017-08-04T20:42:08.441Z,2.10
2017-08-04T20:44:36.752Z,2.00
2017-08-04T20:47:05.029Z,2.47
2017-08-04T20:49:33.415Z,2.10
2017-08-04T20:52:01.701Z,2.63
2017-08-04T20:54:30.781Z,2.47
2017-08-04T20:56:59.055Z,1.90
2017-08-04T20:59:27.348Z,2.40
2017-08-04T21:01:55.623Z,2.77
2017-08-04T21:04:23.902Z,2.10
2017-08-04T21:06:52.991Z,2.03
2017-08-04T21:09:21.355Z,2.47
2017-08-04T21:11:49.639Z,2.03
2017-08-04T21:14:17.902Z,1.87
2017-08-04T21:16:46.287Z,2.30
2017-08-04T21:19:14.580Z,2.20
2017-08-04T21:21:42.862Z,3.53
2017-08-04T21:24:11.143Z,2.20
2017-08-04T21:26:39.424Z,2.20
2017-08-04T21:29:08.476Z,1.80
2017-08-04T21:31:36.802Z,2.20
2017-08-04T21:34:05.835Z,2.47
2017-08-04T21:36:34.145Z,3.17
2017-08-04T21:39:02.429Z,2.40
2017-08-04T21:41:30.691Z,2.37
2017-08-04T21:43:59.077Z,2.13
2017-08-04T21:46:27.331Z,2.63
2017-08-04T21:48:55.617Z,2.27
2017-08-04T21:51:23.915Z,2.97
2017-08-04T21:53:52.299Z,2.37
2017-08-04T21:56:20.673Z,1.87
2017-08-04T21:58:49.049Z,2.30
2017-08-04T22:01:18.156Z,2.30
2017-08-04T22:03:46.426Z,2.40
2017-08-04T22:06:14.719Z,2.77
2017-08-04T22:08:43.767Z,2.33
2017-08-04T22:11:12.099Z,2.00
2017-08-04T22:13:41.150Z,2.70
2017-08-04T22:16:09.429Z,2.43
2017-08-04T22:18:37.739Z,2.73
2017-08-04T22:21:06.128Z,2.50
2017-08-04T22:23:35.807Z,2.70
2017-08-04T22:26:04.061Z,3.20
2017-08-04T22:28:33.157Z,3.40
2017-08-04T22:31:01.423Z,4.50
2017-08-04T22:33:29.697Z,3.67
2017-08-04T22:35:57.970Z,5.43
2017-08-04T22:38:26.259Z,4.17
2017-08-04T22:40:54.530Z,5.00
2017-08-04T22:43:22.906Z,5.23
2017-08-04T22:45:51.182Z,5.50
2017-08-04T22:48:19.435Z,5.40
2017-08-04T22:50:47.769Z,4.37
2017-08-04T22:53:16.842Z,3.40
2017-08-04T22:55:45.119Z,3.57
2017-08-04T22:58:13.487Z,3.80
2017-08-04T23:00:41.771Z,4.27
2017-08-04T23:03:10.135Z,3.33
2017-08-04T23:05:38.529Z,4.47
2017-08-04T23:08:07.564Z,3.20
2017-08-04T23:10:35.873Z,3.47
2017-08-04T23:13:04.155Z,3.70
2017-08-04T23:15:32.539Z,2.93
2017-08-04T23:18:00.813Z,3.43
2017-08-04T23:20:29.075Z,3.40
2017-08-04T23:22:57.369Z,4.33
2017-08-04T23:25:25.645Z,3.90
2017-08-04T23:27:54.013Z,3.50
2017-08-04T23:30:22.316Z,4.07
2017-08-04T23:32:50.588Z,2.87
2017-08-04T23:35:18.855Z,3.43
2017-08-04T23:37:47.122Z,3.90
2017-08-04T23:40:15.511Z,3.60
2017-08-04T23:42:43.884Z,3.10
2017-08-04T23:45:12.169Z,4.50
2017-08-04T23:47:40.439Z,3.47
2017-08-04T23:50:08.742Z,3.63
2017-08-04T23:52:37.767Z,3.27
2017-08-04T23:55:06.079Z,3.53
2017-08-04T23:57:34.461Z,3.57
